Time;durP1;ratioP1;P1;durP2;ratioP2;P2;SDS_P1;SDS_P2;PMS_P1;PMS_P2;Temp;Humidity;BMP_temperature;BMP_pressure;BME280_temperature;BME280_humidity;BME280_pressure;Samples;Min_cycle;Max_cycle;Signal;HPM_P1;HPM_P2
2022/06/01 00:00:17;;;;;;;39.35;29.33;;;;;;;9.64;100.00;101025.91;5046875;28;20036;-80
2022/06/01 00:02:42;;;;;;;47.33;31.58;;;;;;;9.59;100.00;101022.63;5067943;28;20036;-80
2022/06/01 00:05:08;;;;;;;46.22;32.55;;;;;;;9.49;100.00;101017.81;5058200;28;20060;-80
2022/06/01 00:07:34;;;;;;;44.53;29.95;;;;;;;9.50;100.00;101018.72;5069879;28;20399;-81
2022/06/01 00:09:59;;;;;;;39.97;31.17;;;;;;;9.44;100.00;101027.34;5078586;28;20131;-82
2022/06/01 00:12:29;;;;;;;43.95;32.17;;;;;;;9.25;100.00;100997.72;5051609;28;20033;-81
2022/06/01 00:14:56;;;;;;;48.10;33.13;;;;;;;9.40;100.00;101017.66;5090412;28;20553;-83
2022/06/01 00:17:25;;;;;;;44.67;32.17;;;;;;;9.40;100.00;101018.50;5062062;28;20392;-83
2022/06/01 00:19:52;;;;;;;46.53;32.63;;;;;;;9.41;100.00;101017.50;5094599;28;20123;-82
2022/06/01 00:22:18;;;;;;;45.08;32.22;;;;;;;9.52;100.00;101028.53;5069043;28;20049;-82
2022/06/01 00:24:47;;;;;;;43.58;32.20;;;;;;;9.42;100.00;101023.88;5050018;28;20027;-81
2022/06/01 00:27:15;;;;;;;38.75;31.20;;;;;;;9.33;100.00;101029.00;5104464;28;20055;-81
2022/06/01 00:29:42;;;;;;;45.72;33.40;;;;;;;9.34;100.00;101036.19;5077767;28;20059;-81
2022/06/01 00:32:11;;;;;;;47.60;34.55;;;;;;;9.34;100.00;101033.47;5052215;28;20056;-80
2022/06/01 00:34:38;;;;;;;47.92;33.25;;;;;;;9.40;100.00;101031.31;5086785;28;20032;-80
2022/06/01 00:37:04;;;;;;;49.38;34.08;;;;;;;9.33;100.00;101034.47;5086296;28;20067;-81
2022/06/01 00:39:30;;;;;;;50.03;34.67;;;;;;;9.33;100.00;101033.56;5090404;28;20024;-81
2022/06/01 00:42:17;;;;;;;48.22;34.10;;;;;;;9.20;100.00;101031.72;5090605;28;20037;-81
2022/06/01 00:44:43;;;;;;;52.63;34.15;;;;;;;9.22;100.00;101031.63;5075187;28;20032;-81
2022/06/01 00:47:10;;;;;;;47.83;34.13;;;;;;;9.27;100.00;101031.31;5063090;28;20040;-82
2022/06/01 00:49:39;;;;;;;50.28;34.65;;;;;;;9.11;100.00;101023.31;5079723;28;20040;-81
2022/06/01 00:52:07;;;;;;;49.88;34.22;;;;;;;9.25;100.00;101039.59;5068636;28;20020;-81
2022/06/01 00:54:33;;;;;;;51.63;35.97;;;;;;;9.34;100.00;101036.19;5088641;28;20389;-80
2022/06/01 00:57:04;;;;;;;48.03;34.63;;;;;;;9.33;100.00;101031.75;5063211;28;20107;-80
2022/06/01 00:59:33;;;;;;;50.03;34.45;;;;;;;9.32;100.00;101027.25;5078164;28;20037;-80
2022/06/01 01:02:02;;;;;;;50.38;35.45;;;;;;;9.19;100.00;101029.97;5083392;28;20032;-82
2022/06/01 01:04:31;;;;;;;48.00;34.40;;;;;;;9.16;100.00;101027.44;5079073;28;20036;-81
2022/06/01 01:07:03;;;;;;;49.60;35.90;;;;;;;9.22;100.00;101025.28;5045142;28;20028;-81
2022/06/01 01:09:29;;;;;;;50.47;36.80;;;;;;;9.16;100.00;101026.59;5076976;28;20036;-82
2022/06/01 01:11:59;;;;;;;54.08;37.58;;;;;;;9.22;100.00;101017.09;5069437;28;20127;-81
2022/06/01 01:14:29;;;;;;;53.90;38.40;;;;;;;9.27;100.00;101023.97;5084923;28;20450;-82
2022/06/01 01:16:56;;;;;;;54.55;37.60;;;;;;;9.28;100.00;101020.28;5068193;28;20027;-80
2022/06/01 01:19:40;;;;;;;56.65;38.58;;;;;;;9.40;100.00;101023.97;5054161;28;20043;-81
2022/06/01 01:22:25;;;;;;;53.35;37.88;;;;;;;9.41;100.00;101022.97;5086420;28;20036;-83
2022/06/01 01:25:16;;;;;;;55.53;38.97;;;;;;;9.41;100.00;101024.84;5089459;28;20039;-81
2022/06/01 01:27:42;;;;;;;58.38;38.08;;;;;;;9.42;100.00;101018.41;5075643;28;20048;-81
2022/06/01 01:30:25;;;;;;;56.65;38.75;;;;;;;9.42;100.00;101018.41;5082410;28;20036;-82
2022/06/01 01:32:51;;;;;;;55.50;38.45;;;;;;;9.39;100.00;101016.75;5092001;28;20047;-80
2022/06/01 01:35:17;;;;;;;59.92;39.35;;;;;;;9.34;100.00;101013.47;5062159;28;20060;-82
2022/06/01 01:37:44;;;;;;;57.47;39.10;;;;;;;9.37;100.00;101011.38;5093726;28;20039;-81
2022/06/01 01:40:11;;;;;;;55.97;39.08;;;;;;;9.35;100.00;101007.91;5082220;28;20514;-81
2022/06/01 01:42:36;;;;;;;62.85;40.75;;;;;;;9.35;100.00;101013.38;5066741;28;20071;-81
2022/06/01 01:45:23;;;;;;;64.35;39.28;;;;;;;9.32;100.00;101007.25;5067990;28;20032;-80
2022/06/01 01:47:49;;;;;;;53.92;38.90;;;;;;;9.28;100.00;101012.06;5085227;28;20035;-81
2022/06/01 01:50:14;;;;;;;58.03;39.17;;;;;;;9.29;100.00;101013.78;5082734;28;20028;-82
2022/06/01 01:52:41;;;;;;;55.47;39.50;;;;;;;9.30;100.00;101015.56;5082811;28;20047;-82
2022/06/01 01:55:29;;;;;;;58.75;40.30;;;;;;;9.22;100.00;101017.09;5093765;28;20043;-81
2022/06/01 01:58:06;;;;;;;55.35;38.78;;;;;;;9.19;100.00;101013.56;5077808;28;20032;-80
2022/06/01 02:01:02;;;;;;;57.00;40.05;;;;;;;9.22;100.00;101022.56;5073787;28;20028;-80
2022/06/01 02:03:36;;;;;;;63.72;41.25;;;;;;;9.26;100.00;101024.94;5085039;28;20043;-80
2022/06/01 02:06:28;;;;;;;58.63;41.20;;;;;;;9.30;100.00;101029.22;5079184;28;20036;-81
2022/06/01 02:09:00;;;;;;;56.97;38.95;;;;;;;9.25;100.00;101019.59;5085403;28;20028;-80
2022/06/01 02:14:47;;;;;;;55.75;40.38;;;;;;;9.16;100.00;101026.59;5097779;28;20082;-81
2022/06/01 02:17:15;;;;;;;59.08;39.13;;;;;;;9.16;100.00;101021.13;5089402;28;20032;-81
2022/06/01 02:19:51;;;;;;;65.53;42.80;;;;;;;9.29;100.00;101023.88;5088642;28;20154;-81
2022/06/01 02:22:17;;;;;;;57.92;40.42;;;;;;;9.30;100.00;101011.97;5085313;28;20117;-80
2022/06/01 02:24:43;;;;;;;61.58;43.05;;;;;;;9.28;100.00;101025.72;5057973;28;20044;-79
2022/06/01 02:27:11;;;;;;;56.55;40.53;;;;;;;9.19;100.00;101018.19;5089980;28;20500;-81
2022/06/01 02:29:43;;;;;;;65.03;40.65;;;;;;;9.19;100.00;101019.03;5093876;28;20119;-81
2022/06/01 02:32:11;;;;;;;61.10;40.35;;;;;;;9.19;100.00;101018.19;5068147;28;20046;-81
2022/06/01 02:34:39;;;;;;;60.60;40.00;;;;;;;9.11;100.00;101026.91;5080336;28;20510;-80
2022/06/01 02:37:07;;;;;;;56.30;39.38;;;;;;;9.02;100.00;101019.38;5065151;28;20036;-82
2022/06/01 02:39:35;;;;;;;60.75;41.08;;;;;;;9.10;100.00;101027.91;5084474;28;20029;-82
2022/06/01 02:42:31;;;;;;;64.05;41.33;;;;;;;9.08;100.00;101026.25;5068999;28;20040;-81
2022/06/01 02:45:10;;;;;;;57.13;39.75;;;;;;;9.05;100.00;101031.91;5087939;28;20038;-80
2022/06/01 02:47:40;;;;;;;63.45;39.42;;;;;;;9.09;100.00;101034.34;5069256;28;20036;-81
2022/06/01 02:50:08;;;;;;;61.58;39.08;;;;;;;9.05;100.00;101034.66;5087966;28;20051;-80
2022/06/01 02:52:33;;;;;;;56.38;38.55;;;;;;;9.01;100.00;101032.13;5086207;28;20032;-80
2022/06/01 02:54:59;;;;;;;59.40;37.88;;;;;;;8.95;100.00;101021.66;5088324;28;20033;-81
2022/06/01 02:57:25;;;;;;;60.38;39.00;;;;;;;9.00;100.00;101030.41;5073213;28;20031;-80
2022/06/01 02:59:52;;;;;;;58.95;40.22;;;;;;;8.98;100.00;101036.94;5060829;28;20069;-80
2022/06/01 03:02:18;;;;;;;60.65;37.95;;;;;;;9.02;100.00;101039.34;5063188;28;20036;-80
2022/06/01 03:04:44;;;;;;;70.30;41.42;;;;;;;9.18;100.00;101036.44;5068060;28;20042;-80
2022/06/01 03:07:12;;;;;;;63.25;37.40;;;;;;;9.08;100.00;101032.56;5077993;28;20032;-82
2022/06/01 03:09:38;;;;;;;64.15;37.70;;;;;;;8.96;100.00;101041.66;5085405;28;20029;-80
2022/06/01 03:12:06;;;;;;;62.85;39.80;;;;;;;8.93;100.00;101034.53;5090559;28;20051;-80
2022/06/01 03:14:32;;;;;;;55.83;36.20;;;;;;;8.74;100.00;101014.94;5084713;28;20028;-80
2022/06/01 03:17:01;;;;;;;56.30;36.40;;;;;;;8.85;100.00;101045.09;5062973;28;20024;-79
2022/06/01 03:19:27;;;;;;;61.55;36.65;;;;;;;8.81;100.00;101025.34;5058711;28;20040;-81
2022/06/01 03:21:53;;;;;;;61.80;37.00;;;;;;;8.74;100.00;101032.22;5057043;28;20510;-80
2022/06/01 03:24:19;;;;;;;58.72;38.20;;;;;;;8.83;100.00;101039.75;5074582;28;20043;-79
2022/06/01 03:26:44;;;;;;;57.05;37.75;;;;;;;8.81;100.00;101035.38;5067752;28;20043;-80
2022/06/01 03:29:10;;;;;;;55.78;35.95;;;;;;;8.78;100.00;101027.41;5060944;28;20038;-79
2022/06/01 03:31:37;;;;;;;61.58;38.42;;;;;;;8.88;100.00;101035.84;5073050;28;20549;-80
2022/06/01 03:34:03;;;;;;;61.65;39.50;;;;;;;8.85;100.00;101041.50;5078063;28;20047;-80
2022/06/01 03:36:28;;;;;;;61.42;37.40;;;;;;;8.88;100.00;101039.44;5092445;28;20028;-79
2022/06/01 03:38:54;;;;;;;66.32;36.13;;;;;;;8.84;100.00;101024.25;5088678;28;20426;-80
2022/06/01 03:41:20;;;;;;;63.40;36.72;;;;;;;8.77;100.00;101032.00;5073192;28;20028;-81
2022/06/01 03:46:33;;;;;;;56.28;34.05;;;;;;;8.75;100.00;101039.41;5093433;28;20052;-81
2022/06/01 03:49:00;;;;;;;58.08;33.88;;;;;;;8.83;100.00;101036.16;5057078;28;20028;-81
2022/06/01 03:51:26;;;;;;;59.72;34.20;;;;;;;8.74;100.00;101037.66;5067404;28;20480;-81
2022/06/01 03:53:55;;;;;;;53.03;33.85;;;;;;;8.69;100.00;101039.84;5070880;28;20049;-80
2022/06/01 03:56:24;;;;;;;54.65;33.03;;;;;;;8.75;100.00;101038.53;5086450;28;20077;-82
2022/06/01 03:58:50;;;;;;;57.97;35.53;;;;;;;8.75;100.00;101027.63;5068889;28;20040;-82
2022/06/01 04:01:17;;;;;;;52.50;33.13;;;;;;;8.75;100.00;101033.06;5083277;28;20032;-84
2022/06/01 04:03:43;;;;;;;55.50;31.77;;;;;;;8.79;100.00;101032.75;5077945;28;20044;-81
2022/06/01 04:06:08;;;;;;;52.97;32.05;;;;;;;8.62;100.00;101012.09;5058583;28;20119;-82
2022/06/01 04:08:34;;;;;;;49.75;31.85;;;;;;;8.72;100.00;101042.34;5088776;28;20058;-82
2022/06/01 04:11:00;;;;;;;49.40;30.77;;;;;;;8.69;100.00;101044.41;5078720;28;20263;-82
2022/06/01 04:13:27;;;;;;;49.90;30.42;;;;;;;8.71;100.00;101043.34;5073352;28;20043;-82
2022/06/01 04:15:53;;;;;;;51.53;29.85;;;;;;;8.74;100.00;101045.84;5070404;28;20056;-82
2022/06/01 04:18:19;;;;;;;47.33;31.10;;;;;;;8.89;100.00;101054.84;5061057;28;20029;-83
2022/06/01 04:20:47;;;;;;;47.10;28.17;;;;;;;8.77;100.00;101047.47;5092744;28;20057;-82
2022/06/01 04:23:13;;;;;;;55.80;30.75;;;;;;;8.75;100.00;101053.06;5082164;28;20502;-83
2022/06/01 04:25:38;;;;;;;54.42;28.83;;;;;;;8.77;100.00;101056.56;5058270;28;20032;-83
2022/06/01 04:28:04;;;;;;;46.17;30.15;;;;;;;8.84;100.00;101054.28;5097664;28;20077;-80
2022/06/01 04:30:30;;;;;;;49.13;29.05;;;;;;;8.86;100.00;101049.59;5081457;28;20074;-82
2022/06/01 04:32:57;;;;;;;50.80;28.63;;;;;;;8.85;100.00;101056.03;5078667;28;20036;-80
2022/06/01 04:35:24;;;;;;;45.55;28.05;;;;;;;8.80;100.00;101053.59;5085229;28;20095;-82
2022/06/01 04:37:51;;;;;;;48.83;28.85;;;;;;;8.93;100.00;101053.63;5067128;28;20045;-81
2022/06/01 04:40:18;;;;;;;40.15;27.92;;;;;;;8.94;100.00;101060.00;5097484;28;20055;-80
2022/06/01 04:42:44;;;;;;;41.88;26.23;;;;;;;8.95;100.00;101051.69;5067719;28;20032;-82
2022/06/01 04:45:13;;;;;;;43.50;26.00;;;;;;;8.96;100.00;101045.25;5080896;28;20024;-82
2022/06/01 04:47:39;;;;;;;41.72;25.00;;;;;;;8.98;100.00;101046.00;5093459;28;20032;-82
2022/06/01 04:50:09;;;;;;;51.42;23.90;;;;;;;9.07;100.00;101055.44;5050363;28;20036;-83
2022/06/01 04:52:35;;;;;;;37.92;23.65;;;;;;;9.08;100.00;101048.09;5092562;28;20076;-83
2022/06/01 04:55:01;;;;;;;43.88;23.42;;;;;;;9.22;100.00;101060.81;5084505;28;20042;-85
2022/06/01 04:57:27;;;;;;;38.42;24.45;;;;;;;9.18;100.00;101051.94;5096700;28;20039;-81
2022/06/01 04:59:54;;;;;;;35.30;23.30;;;;;;;9.28;100.00;101068.56;5062946;28;20112;-82
2022/06/01 05:02:19;;;;;;;32.00;21.58;;;;;;;9.32;100.00;101064.63;5065150;28;20091;-82
2022/06/01 05:04:45;;;;;;;34.33;22.13;;;;;;;9.38;100.00;101069.69;5064946;28;20099;-81
2022/06/01 05:07:11;;;;;;;34.65;21.80;;;;;;;9.44;100.00;101058.28;5075873;28;20035;-83
2022/06/01 05:09:36;;;;;;;30.08;18.80;;;;;;;9.46;100.00;101060.91;5056601;28;20029;-83
2022/06/01 05:12:02;;;;;;;30.85;19.05;;;;;;;9.47;100.00;101059.94;5064257;28;20043;-83
2022/06/01 05:14:27;;;;;;;34.33;19.33;;;;;;;9.65;100.00;101060.47;5068749;28;20033;-83
2022/06/01 05:16:56;;;;;;;28.88;17.50;;;;;;;9.76;100.00;101066.03;5061300;28;20089;-83
2022/06/01 05:19:22;;;;;;;32.78;18.23;;;;;;;9.78;100.00;101060.47;5096521;28;20060;-81
2022/06/01 05:21:47;;;;;;;31.67;18.35;;;;;;;9.91;100.00;101059.44;5059541;28;20056;-81
2022/06/01 05:24:13;;;;;;;29.92;16.27;;;;;;;10.02;100.00;101050.47;5081891;28;20046;-82
2022/06/01 05:26:38;;;;;;;31.98;15.52;;;;;;;10.12;100.00;101046.06;5092682;28;20035;-79
2022/06/01 05:29:04;;;;;;;19.58;14.23;;;;;;;10.55;100.00;101060.28;5064047;28;20096;-83
2022/06/01 05:31:29;;;;;;;23.80;14.30;;;;;;;10.77;100.00;101054.91;5075966;28;20024;-82
2022/06/01 05:33:55;;;;;;;21.83;14.07;;;;;;;11.18;100.00;101059.03;5098263;28;20038;-82
2022/06/01 05:36:21;;;;;;;22.73;13.85;;;;;;;11.42;100.00;101051.75;5084010;28;20058;-81
2022/06/01 05:38:46;;;;;;;24.88;13.55;;;;;;;11.35;100.00;101062.31;5069106;28;20051;-82
2022/06/01 05:41:13;;;;;;;20.13;12.68;;;;;;;11.29;100.00;101058.19;5085331;28;20032;-81
2022/06/01 05:43:38;;;;;;;21.67;13.02;;;;;;;11.12;100.00;101058.66;5071879;28;20036;-82
2022/06/01 05:46:04;;;;;;;21.23;12.85;;;;;;;11.28;100.00;101058.31;5097119;28;20085;-80
2022/06/01 05:48:30;;;;;;;22.58;13.25;;;;;;;11.60;100.00;101066.72;5101512;28;20102;-82
2022/06/01 05:50:55;;;;;;;19.85;12.90;;;;;;;11.59;100.00;101062.22;5106325;28;20479;-81
2022/06/01 05:53:21;;;;;;;26.55;13.68;;;;;;;11.31;100.00;101069.88;5099606;28;20047;-78
2022/06/01 05:55:46;;;;;;;24.45;13.57;;;;;;;11.26;100.00;101068.53;5061251;28;20138;-81
2022/06/01 05:58:22;;;;;;;27.52;13.95;;;;;;;11.67;100.00;101080.81;5061705;28;20024;-79
2022/06/01 06:00:49;;;;;;;28.48;13.05;;;;;;;11.59;100.00;101079.56;5082515;28;20040;-79
2022/06/01 06:03:16;;;;;;;23.63;12.50;;;;;;;11.78;100.00;101080.81;5094732;28;20035;-81
2022/06/01 06:08:27;;;;;;;28.67;12.98;;;;;;;12.69;100.00;101078.84;5089871;28;20017;-80
2022/06/01 06:10:52;;;;;;;19.17;11.68;;;;;;;12.78;100.00;101078.06;5081648;28;20043;-79
2022/06/01 06:13:19;;;;;;;20.27;11.80;;;;;;;12.74;100.00;101083.94;5107472;28;20043;-80
2022/06/01 06:15:45;;;;;;;25.35;11.93;;;;;;;12.50;100.00;101085.03;5101069;28;20361;-79
2022/06/01 06:18:12;;;;;;;19.45;10.23;;;;;;;12.20;100.00;101078.34;5104308;28;20043;-78
2022/06/01 06:20:41;;;;;;;19.35;12.38;;;;;;;13.20;100.00;101086.41;5095592;28;20395;-79
2022/06/01 06:23:07;;;;;;;24.05;12.15;;;;;;;12.77;100.00;101086.44;5104450;28;20044;-78
2022/06/01 06:25:32;;;;;;;23.48;11.98;;;;;;;13.10;100.00;101095.56;5070032;28;20040;-79
2022/06/01 06:27:58;;;;;;;17.88;10.68;;;;;;;13.66;100.00;101109.03;5084302;28;20051;-78
2022/06/01 06:30:23;;;;;;;18.08;10.90;;;;;;;14.15;100.00;101101.91;5074934;28;20389;-77
2022/06/01 06:32:49;;;;;;;20.60;10.95;;;;;;;13.59;100.00;101102.31;5066673;28;20096;-79
2022/06/01 06:35:15;;;;;;;18.83;11.15;;;;;;;13.60;100.00;101107.69;5063679;28;20032;-78
2022/06/01 06:37:41;;;;;;;19.58;12.00;;;;;;;13.96;100.00;101113.69;5097506;28;20043;-77
2022/06/01 06:40:08;;;;;;;18.13;10.68;;;;;;;13.96;100.00;101116.44;5068932;28;20029;-77
2022/06/01 06:42:34;;;;;;;13.98;10.20;;;;;;;14.18;100.00;101111.75;5090331;28;20395;-77
2022/06/01 06:45:00;;;;;;;20.15;10.38;;;;;;;14.47;100.00;101111.00;5090725;28;20032;-78
2022/06/01 06:47:27;;;;;;;17.98;10.40;;;;;;;15.46;100.00;101121.13;5061131;28;20040;-78
2022/06/01 06:49:52;;;;;;;16.80;9.80;;;;;;;14.88;100.00;101112.69;5078871;28;20033;-77
2022/06/01 06:52:18;;;;;;;13.85;10.30;;;;;;;14.84;100.00;101111.25;5066754;28;20482;-77
2022/06/01 06:54:43;;;;;;;23.63;10.10;;;;;;;15.29;100.00;101108.94;5094674;28;20036;-78
2022/06/01 06:57:09;;;;;;;18.17;9.50;;;;;;;15.11;100.00;101109.66;5097022;28;20109;-77
2022/06/01 06:59:36;;;;;;;17.63;9.18;;;;;;;15.14;100.00;101116.78;5090894;28;20428;-77
2022/06/01 07:02:03;;;;;;;16.55;7.82;;;;;;;15.65;100.00;101112.81;5082033;28;20035;-77
2022/06/01 07:04:28;;;;;;;16.45;7.10;;;;;;;16.32;100.00;101105.34;5094046;28;20478;-77
2022/06/01 07:06:55;;;;;;;13.52;7.13;;;;;;;16.32;100.00;101108.09;5096155;28;20118;-77
2022/06/01 07:09:21;;;;;;;15.70;8.13;;;;;;;15.58;100.00;101109.78;5087134;28;20101;-78
2022/06/01 07:11:47;;;;;;;17.23;8.77;;;;;;;15.27;100.00;101122.03;5081459;28;20526;-77
2022/06/01 07:14:13;;;;;;;16.38;9.20;;;;;;;14.89;100.00;101117.19;5066314;28;20123;-78
2022/06/01 07:16:38;;;;;;;19.00;8.30;;;;;;;15.12;100.00;101119.69;5061527;28;20035;-77
2022/06/01 07:19:06;;;;;;;13.88;8.23;;;;;;;15.08;100.00;101120.97;5077155;28;20028;-78
2022/06/01 07:21:36;;;;;;;19.90;9.85;;;;;;;15.06;100.00;101123.03;5086886;28;20032;-77
2022/06/01 07:24:05;;;;;;;13.90;8.18;;;;;;;15.25;100.00;101128.53;5083329;28;20029;-77
2022/06/01 07:26:36;;;;;;;15.10;8.38;;;;;;;16.34;100.00;101125.41;5075968;28;20383;-78
2022/06/01 07:29:04;;;;;;;18.50;7.93;;;;;;;16.98;100.00;101119.94;5093708;28;20047;-78
2022/06/01 07:31:30;;;;;;;10.68;7.32;;;;;;;17.00;100.00;101117.88;5085608;28;20036;-77
2022/06/01 07:33:58;;;;;;;11.15;6.97;;;;;;;16.94;100.00;101115.78;5093403;28;20085;-78
2022/06/01 07:36:24;;;;;;;15.85;8.40;;;;;;;16.94;100.00;101121.31;5086839;28;20059;-77
2022/06/01 07:44:35;;;;;;;12.18;6.50;;;;;;;17.90;100.00;101123.34;5115764;28;20032;-78
2022/06/01 07:47:01;;;;;;;10.18;6.45;;;;;;;17.96;100.00;101128.25;5120384;28;20064;-77
2022/06/01 07:49:27;;;;;;;7.68;4.85;;;;;;;17.93;100.00;101127.72;5092657;28;20073;-77
2022/06/01 07:51:54;;;;;;;15.05;6.07;;;;;;;17.26;100.00;101131.81;5091942;28;20024;-76
2022/06/01 07:54:20;;;;;;;16.17;6.50;;;;;;;18.22;100.00;101138.47;5104702;28;20123;-77
2022/06/01 07:56:46;;;;;;;13.82;5.72;;;;;;;17.75;100.00;101138.81;5073770;28;20024;-78
2022/06/01 07:59:12;;;;;;;15.73;6.05;;;;;;;17.67;100.00;101128.53;5110413;28;20376;-77
2022/06/01 08:01:39;;;;;;;15.20;6.63;;;;;;;18.41;100.00;101133.69;5077949;28;20040;-77
2022/06/01 08:04:06;;;;;;;14.05;5.68;;;;;;;17.98;100.00;101137.25;5083655;28;20029;-77
2022/06/01 08:06:33;;;;;;;14.68;5.95;;;;;;;17.86;100.00;101134.91;5102286;28;20037;-78
2022/06/01 08:08:59;;;;;;;12.88;6.10;;;;;;;18.11;100.00;101130.44;5081968;28;20078;-77
2022/06/01 08:14:14;;;;;;;7.65;4.82;;;;;;;18.27;97.61;101130.53;5082662;28;20036;-77
2022/06/01 08:16:41;;;;;;;15.77;6.30;;;;;;;16.75;100.00;101125.03;5072722;28;20060;-78
2022/06/01 08:19:07;;;;;;;11.02;5.30;;;;;;;16.38;100.00;101133.38;5084959;28;20024;-77
2022/06/01 08:21:34;;;;;;;10.75;5.45;;;;;;;16.95;100.00;101144.31;5051958;28;20044;-77
2022/06/01 08:24:00;;;;;;;11.50;5.15;;;;;;;17.14;100.00;101126.69;5068966;28;20040;-77
2022/06/01 08:26:25;;;;;;;10.88;5.18;;;;;;;16.49;100.00;101135.94;5074468;28;20032;-77
2022/06/01 08:28:51;;;;;;;18.80;5.60;;;;;;;16.82;100.00;101134.47;5099995;28;20071;-77
2022/06/01 08:31:17;;;;;;;11.82;5.40;;;;;;;18.07;99.85;101138.22;5071141;28;20036;-77
2022/06/01 08:33:42;;;;;;;13.73;5.07;;;;;;;16.89;99.93;101132.84;5075121;28;20410;-77
2022/06/01 08:36:08;;;;;;;13.00;4.75;;;;;;;17.77;98.92;101140.41;5090088;28;20029;-77
2022/06/01 08:38:33;;;;;;;12.48;4.10;;;;;;;17.91;93.09;101140.88;5079774;28;20097;-78
2022/06/01 08:41:09;;;;;;;15.32;5.00;;;;;;;18.13;93.35;101137.53;5087022;28;20036;-78
2022/06/01 08:43:41;;;;;;;7.03;3.22;;;;;;;17.20;93.37;101139.88;5077509;28;20028;-78
2022/06/01 08:46:08;;;;;;;12.43;4.18;;;;;;;17.53;94.66;101134.63;5080930;28;20387;-78
2022/06/01 08:48:39;;;;;;;11.40;3.90;;;;;;;18.79;91.45;101135.06;5081546;28;20448;-78
2022/06/01 08:51:06;;;;;;;5.38;3.78;;;;;;;18.85;90.38;101139.97;5081769;28;20028;-79
2022/06/01 08:53:32;;;;;;;8.68;4.03;;;;;;;18.64;91.85;101140.38;5064397;28;20048;-79
2022/06/01 08:56:13;;;;;;;15.57;4.22;;;;;;;17.31;93.66;101131.34;5063574;28;20036;-78
2022/06/01 08:59:26;;;;;;;11.38;4.22;;;;;;;19.05;87.15;101140.56;5079061;28;20032;-78
2022/06/01 09:02:10;;;;;;;6.72;3.63;;;;;;;18.52;86.07;101144.50;5003135;28;20041;-79
2022/06/01 09:04:47;;;;;;;13.27;3.53;;;;;;;18.06;88.28;101142.00;5081960;28;20036;-78
2022/06/01 09:07:41;;;;;;;12.07;4.20;;;;;;;19.04;84.33;101137.94;5080949;28;20107;-78
2022/06/01 09:10:26;;;;;;;6.85;3.28;;;;;;;18.81;79.38;101146.88;5061388;28;20549;-77
2022/06/01 09:13:01;;;;;;;5.90;3.00;;;;;;;18.80;81.77;101135.94;5079200;28;20036;-77
2022/06/01 09:15:28;;;;;;;8.82;3.95;;;;;;;18.38;81.58;101126.56;5080099;28;20037;-77
2022/06/01 09:17:55;;;;;;;11.65;4.50;;;;;;;18.99;83.92;101132.00;5081214;28;20505;-77
2022/06/01 09:23:15;;;;;;;14.90;5.70;;;;;;;17.20;90.71;101146.31;5093377;28;20063;-78
2022/06/01 09:25:50;;;;;;;9.68;5.38;;;;;;;18.25;87.78;101142.78;5066018;28;20032;-78
2022/06/01 09:28:44;;;;;;;10.90;4.95;;;;;;;18.71;87.46;101155.31;5102752;28;20040;-77
2022/06/01 09:31:23;;;;;;;11.68;4.80;;;;;;;17.50;89.72;101149.69;5098532;28;20208;-76
2022/06/01 09:33:49;;;;;;;19.05;5.60;;;;;;;17.98;91.17;101147.50;5092316;28;20394;-79
2022/06/01 09:36:26;;;;;;;9.15;4.35;;;;;;;18.75;85.16;101155.84;5079550;28;20119;-77
2022/06/01 09:39:03;;;;;;;13.45;5.22;;;;;;;18.70;85.29;101148.03;5080016;28;20074;-78
2022/06/01 09:41:40;;;;;;;11.30;5.82;;;;;;;18.51;87.24;101145.53;5078845;28;20036;-76
2022/06/01 09:44:14;;;;;;;14.38;6.45;;;;;;;19.06;86.31;101141.41;5079848;28;20054;-77
2022/06/01 09:46:40;;;;;;;12.05;5.70;;;;;;;18.75;82.82;101144.75;5061533;28;20494;-78
2022/06/01 09:49:18;;;;;;;10.45;5.07;;;;;;;18.71;86.08;101148.91;5076470;28;20115;-78
2022/06/01 09:51:45;;;;;;;11.32;5.03;;;;;;;19.00;81.24;101147.63;5076655;28;20487;-77
2022/06/01 09:54:14;;;;;;;8.27;4.20;;;;;;;19.60;77.03;101132.63;5076204;28;20072;-78
2022/06/01 09:56:46;;;;;;;8.93;4.30;;;;;;;20.62;70.48;101127.34;5077519;28;20063;-77
2022/06/01 10:08:18;;;;;;;7.13;2.97;;;;;;;19.38;72.66;101125.81;5097844;28;20077;-77
2022/06/01 10:10:58;;;;;;;5.97;3.55;;;;;;;19.39;70.42;101114.53;5078964;28;20028;-77
2022/06/01 10:13:34;;;;;;;9.05;3.50;;;;;;;19.74;70.44;101125.47;5098399;28;20032;-78
2022/06/01 10:16:12;;;;;;;13.30;3.95;;;;;;;19.43;69.81;101121.50;5092333;28;20062;-79
2022/06/01 10:18:40;;;;;;;6.18;3.38;;;;;;;18.68;72.03;101121.50;5096591;28;20063;-78
2022/06/01 10:21:09;;;;;;;7.05;3.88;;;;;;;18.83;74.16;101130.94;5079279;28;20063;-78
2022/06/01 10:23:43;;;;;;;10.10;4.35;;;;;;;19.11;73.71;101119.56;5095332;28;20028;-79
2022/06/01 10:26:18;;;;;;;8.57;4.43;;;;;;;19.82;73.16;101119.94;5101782;28;20108;-78
2022/06/01 10:28:50;;;;;;;11.77;4.50;;;;;;;19.51;72.29;101119.75;5117612;28;20422;-78
2022/06/01 10:31:34;;;;;;;14.30;4.97;;;;;;;19.45;74.03;101113.00;5094790;28;20036;-77
2022/06/01 10:34:39;;;;;;;18.70;6.85;;;;;;;18.68;77.54;101122.38;5089604;28;20456;-79
2022/06/01 10:37:51;;;;;;;18.55;6.35;;;;;;;18.63;81.36;101133.09;5077469;28;20075;-78
2022/06/01 10:40:28;;;;;;;19.27;6.20;;;;;;;18.55;79.59;101145.03;5072652;28;20040;-78
2022/06/01 10:43:18;;;;;;;16.42;6.05;;;;;;;17.95;81.81;101156.97;5060157;28;20035;-77
2022/06/01 10:45:53;;;;;;;21.75;9.55;;;;;;;17.43;90.25;101167.94;5058711;28;20032;-77
2022/06/01 10:48:25;;;;;;;18.63;10.30;;;;;;;16.54;99.60;101198.06;5080842;28;20054;-77
2022/06/01 10:51:16;;;;;;;37.72;10.98;;;;;;;16.28;100.00;101211.69;5097187;28;20032;-79
2022/06/01 10:53:48;;;;;;;22.08;10.95;;;;;;;15.09;100.00;101210.13;5079587;28;20466;-78
2022/06/01 10:56:18;;;;;;;58.70;15.73;;;;;;;14.23;100.00;101213.25;5097578;28;20364;-79
2022/06/01 10:58:44;;;;;;;36.55;17.02;;;;;;;13.64;100.00;101234.00;5089788;28;20032;-78
2022/06/01 11:01:26;;;;;;;56.95;22.85;;;;;;;13.13;100.00;101225.38;5061368;28;20036;-77
2022/06/01 11:04:01;;;;;;;47.27;22.43;;;;;;;12.60;100.00;101217.84;5095997;28;20066;-77
2022/06/01 11:06:27;;;;;;;44.38;23.05;;;;;;;12.42;100.00;101225.72;5094759;28;20036;-78
2022/06/01 11:09:14;;;;;;;44.80;22.38;;;;;;;12.50;100.00;101225.09;5096216;28;20109;-78
2022/06/01 11:11:54;;;;;;;48.38;22.35;;;;;;;12.44;100.00;101231.97;5096785;28;20487;-79
2022/06/01 11:14:55;;;;;;;47.95;23.77;;;;;;;12.47;100.00;101230.84;5088868;28;20038;-78
2022/06/01 11:17:44;;;;;;;45.85;22.23;;;;;;;12.62;100.00;101229.59;5076538;28;20024;-79
2022/06/01 11:20:47;;;;;;;45.38;24.15;;;;;;;12.46;100.00;101226.34;5060282;28;20479;-79
2022/06/01 11:23:28;;;;;;;46.75;23.42;;;;;;;12.46;100.00;101229.97;5063454;28;20036;-79
2022/06/01 11:26:11;;;;;;;53.38;23.88;;;;;;;12.48;100.00;101235.34;5079848;28;20033;-79
2022/06/01 11:28:52;;;;;;;44.30;20.88;;;;;;;12.50;100.00;101236.09;5059174;28;20430;-79
2022/06/01 11:31:26;;;;;;;52.55;23.75;;;;;;;12.55;100.00;101241.22;5058678;28;20795;-78
2022/06/01 11:34:14;;;;;;;46.22;23.08;;;;;;;12.67;100.00;101241.09;5080238;28;20041;-79
2022/06/01 11:37:02;;;;;;;41.90;20.73;;;;;;;12.53;100.00;101238.59;5079692;28;20036;-78
2022/06/01 11:39:52;;;;;;;38.33;19.63;;;;;;;12.60;100.00;101242.56;5094434;28;20542;-78
2022/06/01 11:42:33;;;;;;;37.47;18.95;;;;;;;12.23;100.00;101259.28;5084305;28;20028;-78
2022/06/01 11:45:01;;;;;;;30.38;18.15;;;;;;;12.10;100.00;101256.66;5067542;28;20029;-77
2022/06/01 11:47:51;;;;;;;33.75;21.02;;;;;;;12.25;100.00;101239.97;5077275;28;20032;-79
2022/06/01 11:50:19;;;;;;;37.92;20.10;;;;;;;12.31;100.00;101247.69;5078851;28;20067;-80
2022/06/01 11:52:46;;;;;;;35.38;17.27;;;;;;;12.13;100.00;101234.44;5076835;28;20032;-79